PUA2603 SABE-SUMU
Flight info
| Callsign | PUA2603 |
|---|---|
| Flight time | 0h 25m |
| Altitude | 15000 |
| Route | DORVO8 DORVO A305 TOKAM |
| Aircraft | A20N/M-SDE2E3FGHIRWXY/LB1 |
Departure
| Time | 2026-05-05 04:56 |
|---|---|
| Airport | Aeroparque Jorge Newbery (SABE) |
Arrival
| Time | 2026-05-05 05:21 |
|---|---|
| Airport | Carrasco General Cesáreo L. Berisso International Airport (SUMU) |
| Time | Latitude | Longitude | Altitude | Speed | Heading |
|---|---|---|---|---|---|
| 2026-05-05 04:33 | -34.55678 | -58.41484 | 28 ft | 0 kts | 13° |
| 2026-05-05 04:47 | -34.55681 | -58.41485 | 28 ft | 0 kts | 13° |
| 2026-05-05 04:47 | -34.55692 | -58.41488 | 28 ft | 2 kts | 1° |
| 2026-05-05 04:48 | -34.55707 | -58.41486 | 28 ft | 2 kts | 347° |
| 2026-05-05 04:48 | -34.55722 | -58.41480 | 28 ft | 2 kts | 332° |
| 2026-05-05 04:48 | -34.55734 | -58.41470 | 28 ft | 2 kts | 317° |
| 2026-05-05 04:48 | -34.55744 | -58.41457 | 28 ft | 1 kts | 302° |
| 2026-05-05 04:49 | -34.55747 | -58.41450 | 28 ft | 1 kts | 297° |
| 2026-05-05 04:49 | -34.55748 | -58.41448 | 28 ft | 0 kts | 298° |
| 2026-05-05 04:51 | -34.55747 | -58.41450 | 28 ft | 1 kts | 298° |
| 2026-05-05 04:51 | -34.55736 | -58.41475 | 28 ft | 5 kts | 298° |
| 2026-05-05 04:51 | -34.55725 | -58.41530 | 28 ft | 9 kts | 256° |
| 2026-05-05 04:52 | -34.55783 | -58.41584 | 27 ft | 12 kts | 182° |
| 2026-05-05 04:52 | -34.55834 | -58.41511 | 28 ft | 12 kts | 116° |
| 2026-05-05 04:52 | -34.55872 | -58.41416 | 29 ft | 12 kts | 116° |
| 2026-05-05 04:52 | -34.55912 | -58.41322 | 30 ft | 12 kts | 118° |
| 2026-05-05 04:53 | -34.55961 | -58.41235 | 31 ft | 12 kts | 129° |
| 2026-05-05 04:53 | -34.56014 | -58.41152 | 32 ft | 12 kts | 127° |
| 2026-05-05 04:53 | -34.56069 | -58.41061 | 31 ft | 13 kts | 125° |
| 2026-05-05 04:53 | -34.56128 | -58.40963 | 30 ft | 14 kts | 126° |
| 2026-05-05 04:54 | -34.56179 | -58.40848 | 29 ft | 16 kts | 108° |
| 2026-05-05 04:54 | -34.56228 | -58.40720 | 27 ft | 17 kts | 122° |
| 2026-05-05 04:54 | -34.56296 | -58.40596 | 26 ft | 17 kts | 126° |
| 2026-05-05 04:54 | -34.56385 | -58.40488 | 26 ft | 17 kts | 140° |
| 2026-05-05 04:55 | -34.56472 | -58.40398 | 26 ft | 14 kts | 137° |
| 2026-05-05 04:55 | -34.56553 | -58.40400 | 27 ft | 12 kts | 226° |
| 2026-05-05 04:55 | -34.56510 | -58.40523 | 29 ft | 35 kts | 304° |
| 2026-05-05 04:55 | -34.56221 | -58.41045 | 33 ft | 112 kts | 304° |
| 2026-05-05 04:56 | -34.55663 | -58.42039 | 106 ft | 165 kts | 304° |
| 2026-05-05 04:56 | -34.55019 | -58.43191 | 847 ft | 164 kts | 304° |
| 2026-05-05 04:56 | -34.54249 | -58.44150 | 1652 ft | 165 kts | 336° |
| 2026-05-05 04:56 | -34.53114 | -58.44104 | 2332 ft | 179 kts | 22° |
| 2026-05-05 04:57 | -34.52031 | -58.43214 | 2927 ft | 197 kts | 31° |
| 2026-05-05 04:57 | -34.50874 | -58.42186 | 3420 ft | 219 kts | 36° |
| 2026-05-05 04:57 | -34.49913 | -58.40619 | 3948 ft | 247 kts | 66° |
| 2026-05-05 04:57 | -34.49706 | -58.38468 | 4532 ft | 271 kts | 96° |
| 2026-05-05 04:58 | -34.50295 | -58.36245 | 5279 ft | 284 kts | 111° |
| 2026-05-05 04:58 | -34.51082 | -58.34058 | 6185 ft | 288 kts | 111° |
| 2026-05-05 04:58 | -34.51804 | -58.31804 | 7061 ft | 292 kts | 107° |
| 2026-05-05 04:58 | -34.52448 | -58.29456 | 7878 ft | 298 kts | 105° |
| 2026-05-05 04:59 | -34.53043 | -58.27042 | 8651 ft | 304 kts | 104° |
| 2026-05-05 04:59 | -34.53627 | -58.24567 | 9394 ft | 310 kts | 104° |
| 2026-05-05 04:59 | -34.54236 | -58.22053 | 10084 ft | 316 kts | 105° |
| 2026-05-05 04:59 | -34.54887 | -58.19443 | 10611 ft | 329 kts | 106° |
| 2026-05-05 05:00 | -34.55572 | -58.16714 | 10986 ft | 347 kts | 106° |
| 2026-05-05 05:00 | -34.56285 | -58.13879 | 11296 ft | 365 kts | 107° |
| 2026-05-05 05:00 | -34.57045 | -58.10853 | 11598 ft | 382 kts | 107° |
| 2026-05-05 05:00 | -34.57826 | -58.07731 | 11880 ft | 399 kts | 107° |
| 2026-05-05 05:01 | -34.58642 | -58.04464 | 12158 ft | 414 kts | 107° |
| 2026-05-05 05:01 | -34.59495 | -58.01040 | 12425 ft | 428 kts | 107° |
| 2026-05-05 05:01 | -34.60359 | -57.97565 | 12908 ft | 435 kts | 108° |
| 2026-05-05 05:01 | -34.61229 | -57.94048 | 13488 ft | 439 kts | 108° |
| 2026-05-05 05:02 | -34.62116 | -57.90464 | 14076 ft | 442 kts | 108° |
| 2026-05-05 05:02 | -34.63000 | -57.86897 | 14619 ft | 446 kts | 108° |
| 2026-05-05 05:02 | -34.63899 | -57.83266 | 14908 ft | 448 kts | 108° |
| 2026-05-05 05:02 | -34.64784 | -57.79680 | 14939 ft | 448 kts | 108° |
| 2026-05-05 05:03 | -34.65678 | -57.76049 | 14940 ft | 448 kts | 108° |
| 2026-05-05 05:03 | -34.66562 | -57.72454 | 14947 ft | 448 kts | 108° |
| 2026-05-05 05:03 | -34.67458 | -57.68800 | 14951 ft | 448 kts | 108° |
| 2026-05-05 05:03 | -34.68338 | -57.65201 | 14941 ft | 448 kts | 108° |
| 2026-05-05 05:04 | -34.69224 | -57.61577 | 14932 ft | 448 kts | 108° |
| 2026-05-05 05:04 | -34.70107 | -57.57964 | 14948 ft | 448 kts | 108° |
| 2026-05-05 05:04 | -34.70951 | -57.54347 | 14944 ft | 448 kts | 106° |
| 2026-05-05 05:04 | -34.71619 | -57.50652 | 14937 ft | 449 kts | 102° |
| 2026-05-05 05:05 | -34.72075 | -57.46881 | 14944 ft | 449 kts | 98° |
| 2026-05-05 05:05 | -34.72400 | -57.43140 | 14944 ft | 449 kts | 97° |
| 2026-05-05 05:05 | -34.72704 | -57.39351 | 14940 ft | 450 kts | 97° |
| 2026-05-05 05:05 | -34.73006 | -57.35545 | 14958 ft | 450 kts | 97° |
| 2026-05-05 05:06 | -34.73311 | -57.31778 | 14954 ft | 450 kts | 96° |
| 2026-05-05 05:06 | -34.73616 | -57.28015 | 14938 ft | 450 kts | 96° |
| 2026-05-05 05:06 | -34.73924 | -57.24244 | 14959 ft | 449 kts | 96° |
| 2026-05-05 05:06 | -34.74237 | -57.20435 | 14953 ft | 449 kts | 96° |
| 2026-05-05 05:07 | -34.74543 | -57.16688 | 14943 ft | 449 kts | 96° |
| 2026-05-05 05:07 | -34.74851 | -57.12929 | 14869 ft | 448 kts | 96° |
| 2026-05-05 05:07 | -34.75155 | -57.09189 | 14247 ft | 448 kts | 97° |
| 2026-05-05 05:07 | -34.75462 | -57.05391 | 13280 ft | 451 kts | 96° |
| 2026-05-05 05:08 | -34.75767 | -57.01653 | 12517 ft | 448 kts | 96° |
| 2026-05-05 05:08 | -34.76071 | -56.97911 | 11844 ft | 431 kts | 95° |
| 2026-05-05 05:08 | -34.76353 | -56.94430 | 11415 ft | 404 kts | 95° |
| 2026-05-05 05:08 | -34.76611 | -56.91181 | 11158 ft | 374 kts | 95° |
| 2026-05-05 05:09 | -34.76852 | -56.88128 | 10924 ft | 350 kts | 94° |
| 2026-05-05 05:09 | -34.77080 | -56.85226 | 10712 ft | 337 kts | 94° |
| 2026-05-05 05:09 | -34.77297 | -56.82460 | 10523 ft | 326 kts | 94° |
| 2026-05-05 05:09 | -34.77507 | -56.79774 | 10341 ft | 316 kts | 94° |
| 2026-05-05 05:10 | -34.77712 | -56.77145 | 10187 ft | 307 kts | 94° |
| 2026-05-05 05:10 | -34.77911 | -56.74596 | 10057 ft | 302 kts | 94° |
| 2026-05-05 05:10 | -34.78231 | -56.72089 | 9930 ft | 300 kts | 105° |
| 2026-05-05 05:10 | -34.79030 | -56.69731 | 9670 ft | 301 kts | 120° |
| 2026-05-05 05:11 | -34.80132 | -56.67572 | 9327 ft | 301 kts | 123° |
| 2026-05-05 05:11 | -34.81289 | -56.65458 | 9004 ft | 301 kts | 124° |
| 2026-05-05 05:11 | -34.82451 | -56.63336 | 8679 ft | 300 kts | 123° |
| 2026-05-05 05:11 | -34.83597 | -56.61214 | 8364 ft | 299 kts | 123° |
| 2026-05-05 05:12 | -34.84731 | -56.59087 | 8027 ft | 298 kts | 123° |
| 2026-05-05 05:12 | -34.85860 | -56.56953 | 7699 ft | 296 kts | 123° |
| 2026-05-05 05:12 | -34.86971 | -56.54846 | 7386 ft | 295 kts | 123° |
| 2026-05-05 05:12 | -34.88075 | -56.52747 | 7060 ft | 293 kts | 123° |
| 2026-05-05 05:13 | -34.89177 | -56.50649 | 6737 ft | 291 kts | 123° |
| 2026-05-05 05:13 | -34.90264 | -56.48577 | 6416 ft | 289 kts | 123° |
| 2026-05-05 05:13 | -34.91340 | -56.46524 | 6103 ft | 287 kts | 123° |
| 2026-05-05 05:13 | -34.92420 | -56.44462 | 5790 ft | 286 kts | 123° |
| 2026-05-05 05:14 | -34.93484 | -56.42428 | 5479 ft | 284 kts | 123° |
| 2026-05-05 05:14 | -34.94539 | -56.40413 | 5174 ft | 283 kts | 123° |
| 2026-05-05 05:14 | -34.95599 | -56.38384 | 4862 ft | 281 kts | 123° |
| 2026-05-05 05:14 | -34.96640 | -56.36393 | 4554 ft | 279 kts | 123° |
| 2026-05-05 05:15 | -34.97674 | -56.34414 | 4242 ft | 278 kts | 122° |
| 2026-05-05 05:15 | -34.98707 | -56.32438 | 3941 ft | 276 kts | 121° |
| 2026-05-05 05:15 | -34.99417 | -56.30298 | 3606 ft | 272 kts | 95° |
| 2026-05-05 05:15 | -34.99239 | -56.28054 | 3289 ft | 264 kts | 65° |
| 2026-05-05 05:16 | -34.98293 | -56.26248 | 3232 ft | 244 kts | 45° |
| 2026-05-05 05:16 | -34.97202 | -56.24736 | 3226 ft | 230 kts | 44° |
| 2026-05-05 05:16 | -34.96193 | -56.23288 | 3193 ft | 217 kts | 46° |
| 2026-05-05 05:16 | -34.95276 | -56.21877 | 3167 ft | 210 kts | 48° |
| 2026-05-05 05:17 | -34.94382 | -56.20444 | 3076 ft | 210 kts | 49° |
| 2026-05-05 05:17 | -34.93544 | -56.19070 | 3068 ft | 197 kts | 49° |
| 2026-05-05 05:17 | -34.92740 | -56.17745 | 2780 ft | 195 kts | 49° |
| 2026-05-05 05:17 | -34.91940 | -56.16430 | 2493 ft | 187 kts | 49° |
| 2026-05-05 05:18 | -34.91190 | -56.15195 | 2244 ft | 174 kts | 48° |
| 2026-05-05 05:18 | -34.90497 | -56.14056 | 2029 ft | 162 kts | 48° |
| 2026-05-05 05:18 | -34.89836 | -56.12971 | 1852 ft | 157 kts | 48° |
| 2026-05-05 05:18 | -34.89202 | -56.11932 | 1631 ft | 149 kts | 48° |
| 2026-05-05 05:19 | -34.88599 | -56.10941 | 1432 ft | 142 kts | 48° |
| 2026-05-05 05:19 | -34.88016 | -56.09986 | 1263 ft | 142 kts | 49° |
| 2026-05-05 05:19 | -34.87429 | -56.09023 | 1071 ft | 140 kts | 50° |
| 2026-05-05 05:19 | -34.86852 | -56.08073 | 886 ft | 139 kts | 50° |
| 2026-05-05 05:20 | -34.86279 | -56.07127 | 707 ft | 138 kts | 50° |
| 2026-05-05 05:20 | -34.85708 | -56.06188 | 535 ft | 137 kts | 50° |
| 2026-05-05 05:20 | -34.85145 | -56.05268 | 397 ft | 136 kts | 51° |
| 2026-05-05 05:20 | -34.84582 | -56.04333 | 249 ft | 136 kts | 53° |
| 2026-05-05 05:21 | -34.84039 | -56.03409 | 87 ft | 134 kts | 52° |
| 2026-05-05 05:21 | -34.83516 | -56.02544 | 76 ft | 109 kts | 53° |
| 2026-05-05 05:21 | -34.83178 | -56.01994 | 81 ft | 52 kts | 54° |
| 2026-05-05 05:21 | -34.82990 | -56.01688 | 90 ft | 41 kts | 53° |
| 2026-05-05 05:22 | -34.82830 | -56.01432 | 97 ft | 31 kts | 55° |
| 2026-05-05 05:22 | -34.82846 | -56.01279 | 102 ft | 13 kts | 147° |
| 2026-05-05 05:22 | -34.82926 | -56.01250 | 102 ft | 13 kts | 211° |
| 2026-05-05 05:22 | -34.82986 | -56.01339 | 100 ft | 14 kts | 234° |
| 2026-05-05 05:23 | -34.83055 | -56.01456 | 95 ft | 18 kts | 234° |
| 2026-05-05 05:23 | -34.83134 | -56.01590 | 91 ft | 20 kts | 234° |
| 2026-05-05 05:23 | -34.83225 | -56.01741 | 86 ft | 22 kts | 234° |
| 2026-05-05 05:23 | -34.83322 | -56.01858 | 83 ft | 19 kts | 184° |
| 2026-05-05 05:24 | -34.83436 | -56.01777 | 82 ft | 19 kts | 147° |
| 2026-05-05 05:24 | -34.83544 | -56.01838 | 79 ft | 19 kts | 234° |
| 2026-05-05 05:24 | -34.83602 | -56.01898 | 75 ft | 8 kts | 155° |
| 2026-05-05 05:24 | -34.83650 | -56.01860 | 74 ft | 4 kts | 143° |
| 2026-05-05 05:25 | -34.83654 | -56.01857 | 74 ft | 0 kts | 143° |